Time;durP1;ratioP1;P1;durP2;ratioP2;P2;SDS_P1;SDS_P2;PMS_P1;PMS_P2;Temp;Humidity;BMP_temperature;BMP_pressure;BME280_temperature;BME280_humidity;BME280_pressure;Samples;Min_cycle;Max_cycle;Signal;HPM_P1;HPM_P2
2022/09/25 00:00:28;;;;;;;38.10;33.05;;;;;;;11.84;100.00;101196.38;4964733;28;20653;-43
2022/09/25 00:02:54;;;;;;;37.20;33.20;;;;;;;11.79;100.00;101187.66;4969676;28;20194;-42
2022/09/25 00:05:19;;;;;;;38.10;32.97;;;;;;;11.79;100.00;101187.66;4968336;28;20193;-45
2022/09/25 00:07:45;;;;;;;36.30;32.40;;;;;;;11.83;100.00;101193.75;4966813;28;20193;-43
2022/09/25 00:10:10;;;;;;;36.33;32.38;;;;;;;11.87;100.00;101193.59;4968491;28;20229;-42
2022/09/25 00:12:36;;;;;;;38.70;33.88;;;;;;;11.89;100.00;101188.19;4969431;28;20190;-44
2022/09/25 00:15:02;;;;;;;31.17;27.88;;;;;;;11.96;100.00;101195.09;4965391;28;20233;-44
2022/09/25 00:17:28;;;;;;;32.65;26.95;;;;;;;11.93;100.00;101187.16;4967382;28;20269;-45
2022/09/25 00:19:53;;;;;;;31.73;28.42;;;;;;;11.95;100.00;101199.56;4966561;28;20214;-46
2022/09/25 00:22:21;;;;;;;32.30;28.90;;;;;;;11.85;100.00;101182.06;4966663;28;20260;-42
2022/09/25 00:24:46;;;;;;;36.35;32.55;;;;;;;11.70;100.00;101191.53;4965639;28;20240;-43
2022/09/25 00:27:13;;;;;;;37.50;32.67;;;;;;;11.70;100.00;101182.63;4969807;28;20281;-41
2022/09/25 00:29:39;;;;;;;34.33;30.83;;;;;;;11.78;100.00;101190.38;4966351;28;20753;-41
2022/09/25 00:32:07;;;;;;;27.90;25.10;;;;;;;11.88;100.00;101190.00;4966256;28;20208;-43
2022/09/25 00:34:32;;;;;;;31.80;28.50;;;;;;;11.87;100.00;101181.97;4967025;28;20659;-44
2022/09/25 00:36:58;;;;;;;30.92;27.45;;;;;;;11.86;100.00;101185.59;4963737;28;20233;-43
2022/09/25 00:39:24;;;;;;;28.52;24.83;;;;;;;11.90;100.00;101190.81;4964991;28;20205;-43
2022/09/25 00:41:50;;;;;;;28.33;25.20;;;;;;;11.89;100.00;101182.81;4962101;28;20197;-44
2022/09/25 00:44:57;;;;;;;29.02;25.83;;;;;;;11.94;100.00;101187.09;4962155;28;20198;-45
2022/09/25 00:47:45;;;;;;;31.88;28.20;;;;;;;11.84;100.00;101192.84;4963109;28;20264;-44
2022/09/25 00:50:19;;;;;;;32.80;29.40;;;;;;;11.78;100.00;101191.25;4967327;28;20630;-41
2022/09/25 00:52:46;;;;;;;34.42;30.73;;;;;;;11.76;100.00;101187.75;4957748;28;20234;-43
2022/09/25 00:55:13;;;;;;;29.13;26.02;;;;;;;11.86;100.00;101188.28;4966948;28;20534;-42
2022/09/25 00:57:41;;;;;;;28.83;25.73;;;;;;;11.91;100.00;101189.00;4961750;28;20213;-44
2022/09/25 01:00:10;;;;;;;26.67;23.77;;;;;;;11.95;100.00;101183.47;4967102;28;20209;-43
2022/09/25 01:02:39;;;;;;;35.50;31.63;;;;;;;11.89;100.00;101181.00;4964326;28;20616;-41
2022/09/25 01:05:09;;;;;;;36.33;32.33;;;;;;;11.81;100.00;101183.09;4965817;28;20246;-43
2022/09/25 01:07:39;;;;;;;32.08;28.70;;;;;;;11.84;100.00;101185.66;4963019;28;20195;-43
2022/09/25 01:10:07;;;;;;;36.35;32.40;;;;;;;11.70;100.00;101177.25;4964982;28;20252;-42
2022/09/25 01:12:38;;;;;;;33.15;29.50;;;;;;;11.73;100.00;101177.13;4966605;28;20186;-42
2022/09/25 01:15:10;;;;;;;37.53;32.50;;;;;;;11.68;100.00;101180.00;4969896;28;20194;-44
2022/09/25 01:17:51;;;;;;;37.97;32.75;;;;;;;11.74;100.00;101176.19;4967787;28;20665;-41
2022/09/25 01:20:57;;;;;;;35.42;31.08;;;;;;;11.77;100.00;101178.78;4964943;28;20580;-43
2022/09/25 01:23:59;;;;;;;41.10;34.22;;;;;;;11.70;100.00;101171.88;4963881;28;20197;-43
2022/09/25 01:26:50;;;;;;;37.45;33.33;;;;;;;11.67;100.00;101178.22;4960634;28;20193;-42
2022/09/25 01:30:19;;;;;;;38.55;33.10;;;;;;;11.70;100.00;101178.13;4961939;28;20256;-42
2022/09/25 01:32:51;;;;;;;33.50;29.35;;;;;;;11.75;100.00;101172.59;4892194;29;20212;-43
2022/09/25 01:35:38;;;;;;;27.70;24.77;;;;;;;11.80;100.00;101177.78;4966229;28;20196;-43
2022/09/25 01:38:22;;;;;;;36.47;32.55;;;;;;;11.70;100.00;101175.44;4962286;28;20198;-44
2022/09/25 01:41:06;;;;;;;30.63;27.42;;;;;;;11.75;100.00;101186.88;4967390;28;20264;-43
2022/09/25 01:43:39;;;;;;;33.80;30.00;;;;;;;11.70;100.00;101182.63;4964077;28;20273;-44
2022/09/25 01:46:12;;;;;;;33.30;29.77;;;;;;;11.68;100.00;101181.81;4968546;28;20641;-43
2022/09/25 01:48:40;;;;;;;28.83;25.73;;;;;;;11.76;100.00;101179.69;4962258;28;20193;-42
2022/09/25 01:51:15;;;;;;;26.80;24.05;;;;;;;11.79;100.00;101190.31;4964345;28;20187;-41
2022/09/25 01:53:47;;;;;;;31.13;27.83;;;;;;;11.80;100.00;101183.13;4963700;28;20186;-43
2022/09/25 01:56:19;;;;;;;26.83;23.95;;;;;;;11.82;100.00;101176.78;4960004;28;20186;-42
2022/09/25 01:58:55;;;;;;;28.25;25.25;;;;;;;11.80;100.00;101175.97;4960522;28;20199;-43
2022/09/25 02:01:30;;;;;;;28.25;25.42;;;;;;;11.77;100.00;101183.28;4961705;28;20692;-43
2022/09/25 02:03:59;;;;;;;29.65;26.45;;;;;;;11.79;100.00;101181.41;4961749;28;20244;-45
2022/09/25 02:06:25;;;;;;;34.92;31.13;;;;;;;11.63;100.00;101175.72;4964428;28;20185;-42
2022/09/25 02:09:08;;;;;;;35.65;30.33;;;;;;;11.61;100.00;101178.47;4959784;28;20190;-41
2022/09/25 02:11:40;;;;;;;29.05;25.88;;;;;;;11.69;100.00;101178.16;4966936;28;20201;-44
2022/09/25 02:14:22;;;;;;;34.33;29.30;;;;;;;11.60;100.00;101175.84;4964989;28;20220;-44
2022/09/25 02:16:53;;;;;;;31.70;28.30;;;;;;;11.61;100.00;101177.56;4968808;28;20198;-44
2022/09/25 02:22:05;;;;;;;26.95;24.23;;;;;;;11.70;100.00;101178.13;4964040;28;20226;-42
2022/09/25 02:24:55;;;;;;;26.67;23.95;;;;;;;11.70;100.00;101174.56;4967822;28;20573;-42
2022/09/25 02:27:23;;;;;;;23.95;21.45;;;;;;;11.75;100.00;101175.25;4961703;28;20190;-43
2022/09/25 02:29:50;;;;;;;24.75;22.08;;;;;;;11.75;100.00;101169.91;4967299;28;20202;-44
2022/09/25 02:32:19;;;;;;;25.48;22.75;;;;;;;11.68;100.00;101161.19;4964157;28;20285;-43
2022/09/25 02:34:45;;;;;;;24.05;21.55;;;;;;;11.74;100.00;101179.75;4968176;28;20729;-43
2022/09/25 02:37:12;;;;;;;22.85;20.65;;;;;;;11.75;100.00;101175.25;4959924;28;20194;-44
2022/09/25 02:39:39;;;;;;;25.45;22.48;;;;;;;11.74;100.00;101169.03;4965049;28;20206;-40
2022/09/25 02:42:19;;;;;;;31.92;28.45;;;;;;;11.60;100.00;101167.78;4960024;28;20572;-42
2022/09/25 02:45:05;;;;;;;28.30;25.20;;;;;;;11.60;100.00;101170.47;4963392;28;20710;-42
2022/09/25 02:48:12;;;;;;;23.60;21.30;;;;;;;11.67;100.00;101163.94;4968492;28;20236;-42
2022/09/25 02:50:56;;;;;;;20.90;18.58;;;;;;;11.69;100.00;101160.25;4961914;28;20222;-43
2022/09/25 02:53:42;;;;;;;24.02;21.45;;;;;;;11.70;100.00;101177.25;4962367;28;20712;-44
2022/09/25 02:56:18;;;;;;;25.35;22.70;;;;;;;11.67;100.00;101175.53;4963070;28;20189;-43
2022/09/25 02:58:53;;;;;;;23.52;21.05;;;;;;;11.68;100.00;101168.38;4961850;28;20214;-42
2022/09/25 03:01:23;;;;;;;23.85;21.45;;;;;;;11.64;100.00;101162.25;4964440;28;20897;-43
2022/09/25 03:03:52;;;;;;;26.85;24.08;;;;;;;11.49;100.00;101158.31;4962077;28;20261;-43
2022/09/25 03:06:19;;;;;;;24.58;21.98;;;;;;;11.59;100.00;101157.97;4963797;28;20251;-42
2022/09/25 03:08:50;;;;;;;24.52;22.13;;;;;;;11.61;100.00;101161.47;4960163;28;20277;-43
2022/09/25 03:11:18;;;;;;;24.13;21.33;;;;;;;11.64;100.00;101161.38;4958861;28;20200;-44
2022/09/25 03:13:44;;;;;;;21.80;19.55;;;;;;;11.70;100.00;101178.13;4962750;28;20190;-44
2022/09/25 03:16:13;;;;;;;25.95;22.73;;;;;;;11.59;100.00;101157.97;4965132;28;20201;-44
2022/09/25 03:18:38;;;;;;;26.95;24.08;;;;;;;11.54;100.00;101166.19;4964501;28;20222;-45
2022/09/25 03:21:04;;;;;;;23.88;21.38;;;;;;;11.59;100.00;101160.66;4957344;28;20187;-45
2022/09/25 03:23:31;;;;;;;24.83;20.63;;;;;;;11.63;100.00;101154.25;4962721;28;20199;-41
2022/09/25 03:25:56;;;;;;;24.13;21.63;;;;;;;11.61;100.00;101153.41;4963179;28;20190;-44
2022/09/25 03:28:22;;;;;;;23.48;21.13;;;;;;;11.62;100.00;101150.69;4965704;28;20179;-44
2022/09/25 03:31:00;;;;;;;21.33;19.13;;;;;;;11.65;100.00;101150.56;4965050;28;20210;-43
2022/09/25 03:33:28;;;;;;;21.42;19.33;;;;;;;11.64;100.00;101145.28;4960088;28;20677;-41
2022/09/25 03:36:00;;;;;;;20.15;18.15;;;;;;;11.67;100.00;101139.78;4961658;28;20518;-42
2022/09/25 03:38:26;;;;;;;20.33;18.30;;;;;;;11.68;100.00;101138.84;4969937;28;20210;-41
2022/09/25 03:40:51;;;;;;;19.77;17.92;;;;;;;11.68;100.00;101137.03;4963760;28;20217;-43
2022/09/25 03:43:17;;;;;;;21.05;18.90;;;;;;;11.66;100.00;101135.34;4962358;28;20297;-41
2022/09/25 03:45:42;;;;;;;17.58;15.93;;;;;;;11.70;100.00;101134.31;4960142;28;20194;-42
2022/09/25 03:48:08;;;;;;;19.33;17.50;;;;;;;11.66;100.00;101144.28;4961895;28;20664;-42
2022/09/25 03:50:33;;;;;;;20.17;18.17;;;;;;;11.69;100.00;101137.91;4963744;28;20690;-42
2022/09/25 03:52:58;;;;;;;19.33;17.48;;;;;;;11.72;100.00;101145.88;4969114;28;20193;-41
2022/09/25 03:55:24;;;;;;;21.50;19.23;;;;;;;11.68;100.00;101136.19;4969424;28;20186;-44
2022/09/25 03:57:50;;;;;;;20.23;18.20;;;;;;;11.67;100.00;101140.66;4962398;28;20219;-43
2022/09/25 04:00:16;;;;;;;22.88;20.50;;;;;;;11.62;100.00;101150.69;4964577;28;20576;-43
2022/09/25 04:02:42;;;;;;;22.90;20.70;;;;;;;11.61;100.00;101140.91;4965692;28;20204;-44
2022/09/25 04:05:08;;;;;;;19.65;17.85;;;;;;;11.66;100.00;101143.41;4969061;28;20197;-45
2022/09/25 04:07:34;;;;;;;20.27;18.23;;;;;;;11.64;100.00;101139.91;4965606;28;20182;-43
2022/09/25 04:10:00;;;;;;;20.73;18.73;;;;;;;11.64;100.00;101139.91;4963746;28;20218;-45
2022/09/25 04:12:25;;;;;;;23.17;20.83;;;;;;;11.56;100.00;101148.22;4966253;28;20204;-43
2022/09/25 04:14:51;;;;;;;19.00;17.17;;;;;;;11.64;100.00;101139.91;4970625;28;20305;-45
2022/09/25 04:17:17;;;;;;;24.33;21.88;;;;;;;11.64;100.00;101137.22;4967440;28;20526;-44
2022/09/25 04:19:42;;;;;;;24.08;21.60;;;;;;;11.61;100.00;101145.38;4963374;28;20205;-43
2022/09/25 04:22:08;;;;;;;22.45;20.25;;;;;;;11.61;100.00;101137.31;4964638;28;20190;-42
2022/09/25 04:24:48;;;;;;;27.60;23.80;;;;;;;11.65;100.00;101138.97;4965340;28;20276;-44
2022/09/25 04:27:20;;;;;;;28.55;25.33;;;;;;;11.69;100.00;101138.78;4967162;28;20273;-43
2022/09/25 04:29:46;;;;;;;28.23;25.33;;;;;;;11.71;100.00;101138.72;4965645;28;20313;-44
2022/09/25 04:34:57;;;;;;;26.98;21.67;;;;;;;11.69;100.00;101127.19;4971368;28;20189;-43
2022/09/25 04:37:25;;;;;;;26.38;22.55;;;;;;;11.74;100.00;101138.59;4956666;28;20222;-44
2022/09/25 04:39:55;;;;;;;18.50;15.38;;;;;;;11.81;100.00;101136.59;4966532;28;20707;-45
2022/09/25 04:42:23;;;;;;;17.17;14.82;;;;;;;11.83;100.00;101138.28;4962674;28;20225;-43
2022/09/25 04:44:51;;;;;;;23.52;14.93;;;;;;;11.82;100.00;101131.13;4963865;28;20178;-44
2022/09/25 04:47:17;;;;;;;20.15;14.02;;;;;;;11.85;100.00;101139.09;4966935;28;20689;-40
2022/09/25 04:49:42;;;;;;;18.40;12.82;;;;;;;11.90;100.00;101141.63;4964966;28;20210;-44
2022/09/25 04:52:07;;;;;;;21.02;14.18;;;;;;;11.86;100.00;101140.81;4966678;28;20696;-43
2022/09/25 04:54:33;;;;;;;17.45;14.77;;;;;;;11.88;100.00;101136.31;4967861;28;20559;-47
2022/09/25 04:56:58;;;;;;;18.80;14.00;;;;;;;11.89;100.00;101138.03;4959581;28;20185;-42
2022/09/25 04:59:24;;;;;;;18.83;16.00;;;;;;;11.85;100.00;101144.47;4964849;28;20214;-46
2022/09/25 05:01:49;;;;;;;16.17;13.52;;;;;;;11.87;100.00;101144.38;4969041;28;20178;-46
2022/09/25 05:04:15;;;;;;;18.13;13.30;;;;;;;11.86;100.00;101140.81;4971007;28;20204;-48
2022/09/25 05:06:40;;;;;;;16.13;13.85;;;;;;;11.90;100.00;101141.63;4968036;28;20182;-48
2022/09/25 05:09:06;;;;;;;13.95;11.52;;;;;;;11.93;100.00;101137.00;4968745;28;20286;-46
2022/09/25 05:11:31;;;;;;;18.95;12.88;;;;;;;11.82;100.00;101141.00;4968575;28;20273;-47
2022/09/25 05:13:57;;;;;;;18.77;11.75;;;;;;;11.82;100.00;101139.19;4965392;28;20186;-46
2022/09/25 05:16:22;;;;;;;14.48;10.75;;;;;;;11.82;100.00;101144.56;4965594;28;20189;-46
2022/09/25 05:18:48;;;;;;;16.25;11.68;;;;;;;11.87;100.00;101139.00;4967826;28;20213;-47
2022/09/25 05:21:13;;;;;;;15.95;11.23;;;;;;;11.86;100.00;101138.13;4966267;28;20186;-48
2022/09/25 05:23:39;;;;;;;18.45;13.00;;;;;;;11.82;100.00;101133.81;4965078;28;20194;-48
2022/09/25 05:26:04;;;;;;;14.63;11.50;;;;;;;11.83;100.00;101142.75;4965633;28;20283;-46
2022/09/25 05:28:31;;;;;;;17.17;13.18;;;;;;;11.84;100.00;101140.00;4970420;28;20275;-46
2022/09/25 05:31:04;;;;;;;17.85;12.27;;;;;;;11.81;100.00;101142.81;4969448;28;20284;-46
2022/09/25 05:33:34;;;;;;;16.60;11.25;;;;;;;11.88;100.00;101139.00;4962846;28;20658;-47
2022/09/25 05:36:04;;;;;;;17.92;13.10;;;;;;;11.85;100.00;101132.81;4962005;28;20564;-46
2022/09/25 05:38:35;;;;;;;17.33;12.80;;;;;;;11.82;100.00;101136.50;4960324;28;20206;-46
2022/09/25 05:41:06;;;;;;;15.13;13.38;;;;;;;11.88;100.00;101130.06;4963167;28;20958;-47
2022/09/25 05:43:33;;;;;;;18.63;14.48;;;;;;;11.79;100.00;101125.91;4965280;28;20228;-46
2022/09/25 05:45:59;;;;;;;16.30;14.35;;;;;;;11.86;100.00;101135.47;4963483;28;20202;-45
2022/09/25 05:48:24;;;;;;;16.98;14.93;;;;;;;11.86;100.00;101127.41;4962601;28;20554;-48
2022/09/25 05:50:55;;;;;;;16.27;12.98;;;;;;;11.88;100.00;101128.25;4964173;28;20198;-47
2022/09/25 05:53:21;;;;;;;19.05;15.32;;;;;;;11.90;100.00;101126.38;4968979;28;20229;-48
2022/09/25 05:55:50;;;;;;;19.85;17.17;;;;;;;11.82;100.00;101128.44;4969465;28;20171;-47
2022/09/25 05:58:15;;;;;;;21.85;17.17;;;;;;;11.80;100.00;101127.63;4965241;28;20268;-46
2022/09/25 06:00:41;;;;;;;19.35;17.33;;;;;;;11.82;100.00;101128.44;4961538;28;20214;-47
2022/09/25 06:03:07;;;;;;;20.30;17.80;;;;;;;11.77;100.00;101119.72;4957410;28;20174;-47
2022/09/25 06:05:33;;;;;;;16.17;14.40;;;;;;;11.87;100.00;101123.81;4955398;28;20178;-45
2022/09/25 06:07:58;;;;;;;17.45;15.65;;;;;;;11.92;100.00;101126.34;4965577;28;20185;-47
2022/09/25 06:10:27;;;;;;;20.08;17.95;;;;;;;11.87;100.00;101123.81;4965329;28;20709;-46
2022/09/25 06:12:57;;;;;;;17.13;15.38;;;;;;;11.88;100.00;101122.00;4961786;28;20186;-47
2022/09/25 06:15:27;;;;;;;18.17;16.30;;;;;;;11.78;100.00;101117.91;4958661;28;20190;-46
2022/09/25 06:17:53;;;;;;;19.17;17.17;;;;;;;11.72;100.00;101117.22;4960518;28;20186;-47
2022/09/25 06:20:20;;;;;;;16.23;14.60;;;;;;;11.75;100.00;101116.22;4969488;28;20873;-46
2022/09/25 06:23:04;;;;;;;15.27;13.25;;;;;;;11.81;100.00;101121.34;4969834;28;20186;-47
2022/09/25 06:25:35;;;;;;;16.13;14.57;;;;;;;11.83;100.00;101124.84;4961342;28;20187;-49
2022/09/25 06:28:01;;;;;;;19.83;17.40;;;;;;;11.78;100.00;101134.88;4966734;28;20174;-48
2022/09/25 06:30:35;;;;;;;16.35;14.65;;;;;;;11.90;100.00;101125.53;4968152;28;20213;-47
2022/09/25 06:33:09;;;;;;;14.88;12.82;;;;;;;12.01;100.00;101127.78;4967730;28;20182;-47
2022/09/25 06:35:39;;;;;;;16.50;14.63;;;;;;;12.08;100.00;101134.66;4966993;28;20184;-47
2022/09/25 06:38:04;;;;;;;23.50;16.90;;;;;;;12.19;100.00;101132.41;4961352;28;20694;-47
2022/09/25 06:40:30;;;;;;;18.98;15.98;;;;;;;12.24;100.00;101127.72;4964135;28;20209;-47
2022/09/25 06:42:58;;;;;;;15.75;14.25;;;;;;;12.50;100.00;101132.03;4967006;28;20189;-46
2022/09/25 06:45:26;;;;;;;19.65;14.25;;;;;;;12.63;100.00;101115.41;4978260;28;20189;-44
2022/09/25 06:47:56;;;;;;;19.02;14.07;;;;;;;12.65;100.00;101125.16;4963999;28;20211;-46
2022/09/25 06:50:30;;;;;;;12.80;11.50;;;;;;;12.82;100.00;101124.44;4961798;28;20237;-47
2022/09/25 06:52:58;;;;;;;17.00;14.02;;;;;;;12.84;100.00;101119.00;4966915;28;20178;-45
2022/09/25 06:55:24;;;;;;;14.18;12.23;;;;;;;12.98;100.00;101117.44;4962750;28;20270;-46
2022/09/25 06:57:49;;;;;;;18.33;12.50;;;;;;;12.88;100.00;101120.59;4961636;28;20202;-46
2022/09/25 07:00:15;;;;;;;17.40;11.82;;;;;;;12.95;100.00;101131.03;4963598;28;20238;-45
2022/09/25 07:05:24;;;;;;;12.98;10.52;;;;;;;12.72;100.00;101120.38;4964557;28;20217;-46
2022/09/25 07:07:50;;;;;;;13.43;10.40;;;;;;;12.62;100.00;101125.28;4964397;28;20665;-46
2022/09/25 07:10:15;;;;;;;16.17;10.38;;;;;;;12.65;100.00;101117.06;4961416;28;20284;-47
2022/09/25 07:12:41;;;;;;;12.63;10.20;;;;;;;12.62;100.00;101130.66;4963975;28;20190;-47
2022/09/25 07:15:07;;;;;;;13.18;9.73;;;;;;;12.63;100.00;101126.16;4962659;28;20189;-47
2022/09/25 07:17:33;;;;;;;13.90;9.77;;;;;;;12.58;100.00;101129.91;4962825;28;20221;-47
2022/09/25 07:19:59;;;;;;;10.77;9.50;;;;;;;12.62;100.00;101137.84;4964025;28;20206;-49
2022/09/25 07:22:25;;;;;;;15.15;11.05;;;;;;;12.51;100.00;101128.41;4966134;28;20282;-46
2022/09/25 07:24:50;;;;;;;13.90;9.38;;;;;;;12.50;100.00;101137.41;4961678;28;20849;-46
2022/09/25 07:27:16;;;;;;;12.77;10.40;;;;;;;12.43;100.00;101135.91;4963080;28;20277;-46
2022/09/25 07:29:41;;;;;;;18.27;10.10;;;;;;;12.36;100.00;101145.16;4965033;28;20202;-48
2022/09/25 07:32:07;;;;;;;12.07;10.23;;;;;;;12.20;100.00;101134.19;4961868;28;20191;-46
2022/09/25 07:34:36;;;;;;;10.73;9.55;;;;;;;12.22;100.00;101137.66;4957706;28;20237;-44
2022/09/25 07:37:02;;;;;;;15.55;9.93;;;;;;;12.10;100.00;101149.78;4971117;28;20209;-45
2022/09/25 07:39:28;;;;;;;12.40;10.23;;;;;;;12.06;100.00;101141.91;4966577;28;20304;-45
2022/09/25 07:41:54;;;;;;;13.63;10.20;;;;;;;12.06;100.00;101155.31;4964381;28;20289;-45
2022/09/25 07:44:20;;;;;;;10.40;8.25;;;;;;;12.12;100.00;101147.03;4958836;28;20282;-45
2022/09/25 07:46:46;;;;;;;11.32;10.18;;;;;;;12.04;100.00;101143.75;4985819;28;20299;-45
2022/09/25 07:49:12;;;;;;;12.60;11.07;;;;;;;12.04;100.00;101150.00;4972845;28;20678;-46
2022/09/25 07:51:37;;;;;;;16.02;11.07;;;;;;;11.91;100.00;101154.09;4972543;28;20194;-46
2022/09/25 07:54:03;;;;;;;11.73;10.63;;;;;;;11.92;100.00;101148.69;4971526;28;20264;-47
2022/09/25 07:56:28;;;;;;;12.98;11.50;;;;;;;11.85;100.00;101157.88;4986273;28;20244;-45
2022/09/25 07:58:54;;;;;;;15.05;12.45;;;;;;;11.85;100.00;101151.63;4970487;28;20226;-46
2022/09/25 08:01:19;;;;;;;14.18;12.65;;;;;;;11.77;100.00;101154.59;4965364;28;20197;-46
2022/09/25 08:03:45;;;;;;;12.25;11.10;;;;;;;11.80;100.00;101151.78;4965995;28;20320;-45
2022/09/25 08:06:12;;;;;;;12.60;11.27;;;;;;;11.85;100.00;101152.50;4965747;28;20608;-45
2022/09/25 08:08:39;;;;;;;13.60;12.18;;;;;;;11.80;100.00;101145.56;4966104;28;20195;-45
2022/09/25 08:11:10;;;;;;;13.43;11.75;;;;;;;11.85;100.00;101139.09;4970613;28;20665;-46
2022/09/25 08:13:37;;;;;;;16.00;12.00;;;;;;;11.87;100.00;101141.69;4968895;28;20657;-45
2022/09/25 08:16:04;;;;;;;15.43;12.05;;;;;;;11.86;100.00;101148.88;4968151;28;20784;-46
2022/09/25 08:18:30;;;;;;;13.50;11.95;;;;;;;11.87;100.00;101152.44;4964925;28;20289;-47
2022/09/25 08:21:03;;;;;;;14.50;13.00;;;;;;;11.88;100.00;101151.56;4965510;28;20306;-45
2022/09/25 08:23:29;;;;;;;15.43;12.93;;;;;;;11.82;100.00;101141.88;4969604;28;20568;-46
2022/09/25 08:25:55;;;;;;;16.27;13.20;;;;;;;11.86;100.00;101142.66;4972269;28;20186;-45
2022/09/25 08:28:21;;;;;;;14.68;11.73;;;;;;;11.97;100.00;101142.25;4964287;28;20190;-45
2022/09/25 08:30:47;;;;;;;15.32;13.65;;;;;;;11.92;100.00;101143.31;4963785;28;20276;-45
2022/09/25 08:33:13;;;;;;;13.77;12.48;;;;;;;11.86;100.00;101138.13;4963465;28;20182;-45
2022/09/25 08:35:42;;;;;;;14.35;12.93;;;;;;;11.95;100.00;101143.19;4970339;28;20213;-46
2022/09/25 08:38:10;;;;;;;14.27;12.77;;;;;;;12.09;100.00;101139.06;4967872;28;20213;-46
2022/09/25 08:40:44;;;;;;;14.02;12.70;;;;;;;11.99;100.00;101135.88;4979605;28;20215;-46
2022/09/25 08:43:19;;;;;;;12.60;11.25;;;;;;;11.91;100.00;101136.19;4977900;28;20185;-46
2022/09/25 08:51:20;;;;;;;13.48;11.15;;;;;;;12.29;100.00;101127.56;4963362;28;20175;-45
2022/09/25 08:53:45;;;;;;;14.13;10.55;;;;;;;12.25;100.00;101134.84;4962642;28;20564;-46
2022/09/25 08:56:18;;;;;;;12.05;10.35;;;;;;;12.25;100.00;101131.31;4964733;28;20194;-47
2022/09/25 08:58:53;;;;;;;11.20;9.52;;;;;;;12.38;100.00;101131.69;4963201;28;20300;-45
2022/09/25 09:01:29;;;;;;;10.65;9.25;;;;;;;12.30;100.00;101129.28;4971795;28;20186;-49
2022/09/25 09:04:04;;;;;;;10.48;8.73;;;;;;;12.20;100.00;101130.59;4968569;28;20198;-45
2022/09/25 09:06:31;;;;;;;11.05;8.30;;;;;;;12.29;100.00;101128.44;4967032;28;20288;-46
2022/09/25 09:09:11;;;;;;;11.02;8.65;;;;;;;12.25;100.00;101139.38;4959456;28;20580;-50
2022/09/25 09:11:51;;;;;;;11.82;8.40;;;;;;;12.23;100.00;101130.50;4965436;28;20328;-45
2022/09/25 09:14:20;;;;;;;15.05;8.70;;;;;;;12.29;100.00;101125.75;4962311;28;20190;-45
2022/09/25 09:16:57;;;;;;;10.68;8.43;;;;;;;12.28;100.00;101137.41;4963421;28;20176;-48
2022/09/25 09:19:23;;;;;;;11.38;8.00;;;;;;;12.21;100.00;101130.53;4963295;28;20214;-44
2022/09/25 09:22:10;;;;;;;8.77;7.43;;;;;;;12.31;100.00;101134.63;4966329;28;20190;-44
2022/09/25 09:24:49;;;;;;;12.15;8.52;;;;;;;12.38;100.00;101131.69;4964691;28;20205;-47
2022/09/25 09:27:23;;;;;;;11.85;7.68;;;;;;;12.26;100.00;101141.97;4965097;28;20182;-46
2022/09/25 09:30:09;;;;;;;15.07;8.30;;;;;;;12.29;100.00;101139.19;4964734;28;20245;-49
2022/09/25 09:33:04;;;;;;;11.73;8.88;;;;;;;12.49;100.00;101146.41;4963598;28;20202;-45
2022/09/25 09:35:51;;;;;;;9.75;6.32;;;;;;;12.33;100.00;101140.81;4969369;28;20268;-47
2022/09/25 09:38:19;;;;;;;8.52;6.40;;;;;;;12.30;100.00;101138.22;4964927;28;20310;-48
2022/09/25 09:40:45;;;;;;;11.80;7.68;;;;;;;12.20;100.00;101128.81;4962769;28;20441;-45
2022/09/25 09:43:36;;;;;;;12.43;7.72;;;;;;;12.34;100.00;101131.78;4965007;28;20238;-49
2022/09/25 09:46:43;;;;;;;13.88;8.20;;;;;;;12.50;100.00;101128.47;4963110;28;20293;-49
2022/09/25 09:49:17;;;;;;;10.00;7.47;;;;;;;12.59;100.00;101122.72;4960414;28;20224;-48
2022/09/25 09:52:08;;;;;;;9.32;8.25;;;;;;;12.55;100.00;101115.72;4966271;28;20224;-49
2022/09/25 09:54:39;;;;;;;10.20;9.18;;;;;;;12.46;100.00;101110.72;4969014;28;20182;-50
2022/09/25 09:57:14;;;;;;;12.80;9.48;;;;;;;12.56;100.00;101123.72;4966573;28;20190;-48
2022/09/25 09:59:49;;;;;;;10.70;9.60;;;;;;;12.65;100.00;101110.84;4965266;28;20265;-48
2022/09/25 10:02:30;;;;;;;9.57;8.70;;;;;;;12.67;100.00;101109.81;4964203;28;20193;-49
2022/09/25 10:05:00;;;;;;;12.98;9.80;;;;;;;12.74;100.00;101116.69;4956742;28;20545;-50
2022/09/25 10:07:28;;;;;;;13.80;10.48;;;;;;;12.68;100.00;101108.91;4965537;28;20202;-48
2022/09/25 10:09:55;;;;;;;10.70;9.43;;;;;;;12.64;100.00;101109.06;4963888;28;20202;-50
2022/09/25 10:12:28;;;;;;;13.45;10.80;;;;;;;12.57;100.00;101116.50;4961036;28;20214;-47
2022/09/25 10:14:55;;;;;;;14.25;10.73;;;;;;;12.55;100.00;101113.91;4957058;28;20246;-48
2022/09/25 10:17:23;;;;;;;14.65;11.15;;;;;;;12.59;100.00;101114.63;4961931;28;20186;-46
2022/09/25 10:19:57;;;;;;;13.13;11.82;;;;;;;12.51;100.00;101109.59;4968382;28;20691;-48
2022/09/25 10:22:26;;;;;;;16.13;13.48;;;;;;;12.59;100.00;101106.56;4964252;28;20256;-47
2022/09/25 10:25:01;;;;;;;15.82;14.27;;;;;;;12.68;100.00;101108.00;4960585;28;20194;-48
2022/09/25 10:27:40;;;;;;;15.52;13.93;;;;;;;12.66;100.00;101107.19;4960592;28;20182;-48
2022/09/25 10:30:08;;;;;;;16.10;14.07;;;;;;;12.61;100.00;101099.31;4955802;28;20213;-49
2022/09/25 10:32:45;;;;;;;15.18;13.70;;;;;;;12.51;100.00;101106.91;4968345;28;20218;-48
2022/09/25 10:35:31;;;;;;;16.95;14.90;;;;;;;12.67;100.00;101101.75;4960207;28;20241;-49
2022/09/25 10:37:59;;;;;;;16.83;15.25;;;;;;;12.71;100.00;101098.00;4962179;28;20214;-47
2022/09/25 10:40:30;;;;;;;14.70;13.20;;;;;;;12.69;100.00;101102.56;4963231;28;20220;-48
2022/09/25 10:43:19;;;;;;;14.50;12.95;;;;;;;12.76;100.00;101095.97;4966897;28;20202;-49
2022/09/25 10:45:48;;;;;;;15.52;13.88;;;;;;;12.94;100.00;101090.75;4954976;28;20210;-49
2022/09/25 10:51:20;;;;;;;15.80;14.23;;;;;;;12.85;100.00;101093.84;4962777;28;20182;-48
2022/09/25 10:53:51;;;;;;;15.32;13.68;;;;;;;12.82;100.00;101092.16;4966505;28;20550;-46
2022/09/25 10:56:20;;;;;;;14.93;13.18;;;;;;;12.87;100.00;101092.84;4966675;28;20665;-49
2022/09/25 10:59:00;;;;;;;15.85;14.35;;;;;;;12.88;100.00;101093.69;4964729;28;20216;-40
2022/09/25 11:01:36;;;;;;;15.38;13.90;;;;;;;12.81;100.00;101089.53;4962085;28;20210;-41
2022/09/25 11:04:10;;;;;;;15.68;13.60;;;;;;;12.82;100.00;101083.22;4966491;28;20618;-41
2022/09/25 11:06:46;;;;;;;13.52;12.18;;;;;;;13.00;100.00;101079.72;4969198;28;20205;-40
2022/09/25 11:09:15;;;;;;;14.80;13.00;;;;;;;13.03;100.00;101087.69;4965770;28;20274;-43
2022/09/25 11:11:42;;;;;;;13.60;12.40;;;;;;;12.84;100.00;101089.41;4972545;28;20198;-41
2022/09/25 11:14:21;;;;;;;13.20;11.95;;;;;;;12.75;100.00;101088.00;4967104;28;20201;-40
2022/09/25 11:16:52;;;;;;;15.45;12.75;;;;;;;12.82;100.00;101078.72;4970972;28;20201;-42
2022/09/25 11:19:28;;;;;;;14.00;12.60;;;;;;;12.87;100.00;101079.38;4972647;28;20225;-40
2022/09/25 11:22:03;;;;;;;15.68;13.65;;;;;;;13.00;100.00;101074.34;4966132;28;20193;-43
2022/09/25 11:24:50;;;;;;;16.35;14.30;;;;;;;12.79;100.00;101081.56;4970832;28;20212;-44
2022/09/25 11:27:38;;;;;;;14.80;13.30;;;;;;;12.86;100.00;101074.09;4967910;28;20658;-45
2022/09/25 11:30:06;;;;;;;14.70;13.30;;;;;;;12.72;100.00;101074.69;4967592;28;20756;-42
2022/09/25 11:32:40;;;;;;;15.65;14.05;;;;;;;12.80;100.00;101069.84;4970588;28;20194;-45
2022/09/25 11:35:11;;;;;;;15.45;13.95;;;;;;;12.75;100.00;101069.19;4975539;28;20193;-43